sensor_id;sensor_type;location;lat;lon;timestamp;pressure;altitude;pressure_sealevel;temperature;humidity
72110;BME280;59983;52.010;5.420;2023-05-19T00:01:57;102765.44;;;10.58;78.10
72110;BME280;59983;52.010;5.420;2023-05-19T00:04:26;102777.91;;;10.59;78.44
72110;BME280;59983;52.010;5.420;2023-05-19T00:06:53;102774.69;;;10.57;78.66
72110;BME280;59983;52.010;5.420;2023-05-19T00:09:20;102768.03;;;10.49;78.87
72110;BME280;59983;52.010;5.420;2023-05-19T00:11:46;102769.94;;;10.49;79.13
72110;BME280;59983;52.010;5.420;2023-05-19T00:14:13;102771.16;;;10.43;79.04
72110;BME280;59983;52.010;5.420;2023-05-19T00:16:40;102767.63;;;10.42;79.41
72110;BME280;59983;52.010;5.420;2023-05-19T00:19:08;102767.34;;;10.44;79.43
72110;BME280;59983;52.010;5.420;2023-05-19T00:21:35;102767.03;;;10.45;79.08
72110;BME280;59983;52.010;5.420;2023-05-19T00:24:05;102754.63;;;10.39;79.29
72110;BME280;59983;52.010;5.420;2023-05-19T00:26:32;102755.25;;;10.36;79.80
72110;BME280;59983;52.010;5.420;2023-05-19T00:28:59;102747.47;;;10.30;80.35
72110;BME280;59983;52.010;5.420;2023-05-19T00:31:26;102747.19;;;10.31;80.08
72110;BME280;59983;52.010;5.420;2023-05-19T00:33:52;102745.28;;;10.32;80.34
72110;BME280;59983;52.010;5.420;2023-05-19T00:36:19;102747.53;;;10.25;80.37
72110;BME280;59983;52.010;5.420;2023-05-19T00:38:46;102748.41;;;10.20;80.64
72110;BME280;59983;52.010;5.420;2023-05-19T00:41:12;102746.97;;;10.28;80.71
72110;BME280;59983;52.010;5.420;2023-05-19T00:43:39;102741.44;;;10.33;80.39
72110;BME280;59983;52.010;5.420;2023-05-19T00:46:05;102743.16;;;10.10;80.50
72110;BME280;59983;52.010;5.420;2023-05-19T00:48:32;102742.22;;;10.01;81.58
72110;BME280;59983;52.010;5.420;2023-05-19T00:50:59;102742.25;;;10.14;81.23
72110;BME280;59983;52.010;5.420;2023-05-19T00:53:31;102744.25;;;10.09;81.34
72110;BME280;59983;52.010;5.420;2023-05-19T00:55:59;102742.72;;;10.03;81.65
72110;BME280;59983;52.010;5.420;2023-05-19T00:58:26;102741.09;;;10.02;81.63
72110;BME280;59983;52.010;5.420;2023-05-19T01:00:57;102740.31;;;10.01;81.90
72110;BME280;59983;52.010;5.420;2023-05-19T01:03:34;102739.56;;;9.96;81.74
72110;BME280;59983;52.010;5.420;2023-05-19T01:06:02;102742.06;;;9.92;82.34
72110;BME280;59983;52.010;5.420;2023-05-19T01:08:34;102742.50;;;9.99;82.11
72110;BME280;59983;52.010;5.420;2023-05-19T01:11:01;102747.47;;;9.92;81.89
72110;BME280;59983;52.010;5.420;2023-05-19T01:13:28;102743.03;;;9.82;82.32
72110;BME280;59983;52.010;5.420;2023-05-19T01:15:59;102747.19;;;9.75;82.82
72110;BME280;59983;52.010;5.420;2023-05-19T01:18:37;102746.59;;;9.78;83.30
72110;BME280;59983;52.010;5.420;2023-05-19T01:27:22;102743.06;;;9.58;83.60
72110;BME280;59983;52.010;5.420;2023-05-19T01:32:49;102734.13;;;9.58;84.20
72110;BME280;59983;52.010;5.420;2023-05-19T01:35:22;102733.91;;;9.54;84.44
72110;BME280;59983;52.010;5.420;2023-05-19T01:37:51;102732.81;;;9.55;84.63
72110;BME280;59983;52.010;5.420;2023-05-19T01:40:20;102735.59;;;9.50;84.51
72110;BME280;59983;52.010;5.420;2023-05-19T01:42:50;102734.78;;;9.50;84.99
72110;BME280;59983;52.010;5.420;2023-05-19T01:45:18;102724.25;;;9.48;84.92
72110;BME280;59983;52.010;5.420;2023-05-19T01:47:48;102725.41;;;9.42;84.96
72110;BME280;59983;52.010;5.420;2023-05-19T01:50:15;102722.69;;;9.42;85.67
72110;BME280;59983;52.010;5.420;2023-05-19T01:52:41;102723.44;;;9.48;85.06
72110;BME280;59983;52.010;5.420;2023-05-19T01:55:08;102728.19;;;9.37;85.87
72110;BME280;59983;52.010;5.420;2023-05-19T01:58:08;102723.47;;;9.24;86.08
72110;BME280;59983;52.010;5.420;2023-05-19T02:15:04;102720.97;;;9.27;86.33
72110;BME280;59983;52.010;5.420;2023-05-19T02:17:33;102713.34;;;9.11;86.75
72110;BME280;59983;52.010;5.420;2023-05-19T02:20:03;102718.22;;;9.08;87.67
72110;BME280;59983;52.010;5.420;2023-05-19T02:22:30;102717.13;;;9.09;87.72
72110;BME280;59983;52.010;5.420;2023-05-19T02:24:57;102706.06;;;9.06;87.42
72110;BME280;59983;52.010;5.420;2023-05-19T02:27:23;102712.91;;;8.98;87.75
72110;BME280;59983;52.010;5.420;2023-05-19T02:29:50;102713.38;;;9.05;88.08
72110;BME280;59983;52.010;5.420;2023-05-19T02:32:17;102708.69;;;8.92;88.13
72110;BME280;59983;52.010;5.420;2023-05-19T02:34:44;102712.81;;;8.85;88.80
72110;BME280;59983;52.010;5.420;2023-05-19T02:37:12;102706.06;;;8.82;89.19
72110;BME280;59983;52.010;5.420;2023-05-19T02:39:40;102705.13;;;8.92;89.14
72110;BME280;59983;52.010;5.420;2023-05-19T02:42:07;102710.00;;;8.95;88.94
72110;BME280;59983;52.010;5.420;2023-05-19T02:44:33;102702.16;;;8.93;89.07
72110;BME280;59983;52.010;5.420;2023-05-19T02:47:00;102702.31;;;8.78;89.28
72110;BME280;59983;52.010;5.420;2023-05-19T02:49:27;102692.13;;;8.70;89.79
72110;BME280;59983;52.010;5.420;2023-05-19T02:51:56;102690.09;;;8.80;89.94
72110;BME280;59983;52.010;5.420;2023-05-19T02:54:22;102698.19;;;8.86;89.58
72110;BME280;59983;52.010;5.420;2023-05-19T02:56:49;102692.69;;;8.91;89.04
72110;BME280;59983;52.010;5.420;2023-05-19T02:59:15;102701.69;;;8.86;89.33
72110;BME280;59983;52.010;5.420;2023-05-19T03:01:42;102692.47;;;8.87;89.49
72110;BME280;59983;52.010;5.420;2023-05-19T03:04:08;102687.59;;;8.89;89.27
72110;BME280;59983;52.010;5.420;2023-05-19T03:06:35;102693.28;;;8.88;89.53
72110;BME280;59983;52.010;5.420;2023-05-19T03:09:02;102692.81;;;8.80;89.63
72110;BME280;59983;52.010;5.420;2023-05-19T03:11:29;102691.03;;;8.71;89.74
72110;BME280;59983;52.010;5.420;2023-05-19T03:13:57;102685.28;;;8.77;89.74
72110;BME280;59983;52.010;5.420;2023-05-19T03:16:23;102688.63;;;8.69;89.75
72110;BME280;59983;52.010;5.420;2023-05-19T03:18:50;102695.66;;;8.65;89.92
72110;BME280;59983;52.010;5.420;2023-05-19T03:21:17;102686.00;;;8.59;90.46
72110;BME280;59983;52.010;5.420;2023-05-19T03:23:44;102690.03;;;8.62;90.95
72110;BME280;59983;52.010;5.420;2023-05-19T03:26:10;102697.34;;;8.61;90.96
72110;BME280;59983;52.010;5.420;2023-05-19T03:28:37;102690.22;;;8.70;90.52
72110;BME280;59983;52.010;5.420;2023-05-19T03:31:03;102688.13;;;8.62;90.40
72110;BME280;59983;52.010;5.420;2023-05-19T03:33:30;102693.25;;;8.64;90.48
72110;BME280;59983;52.010;5.420;2023-05-19T03:35:57;102696.16;;;8.72;90.19
72110;BME280;59983;52.010;5.420;2023-05-19T03:38:24;102691.09;;;8.66;90.62
72110;BME280;59983;52.010;5.420;2023-05-19T03:40:50;102693.22;;;8.69;90.54
72110;BME280;59983;52.010;5.420;2023-05-19T03:43:18;102691.03;;;8.71;90.20
72110;BME280;59983;52.010;5.420;2023-05-19T03:45:45;102694.06;;;8.64;89.98
72110;BME280;59983;52.010;5.420;2023-05-19T03:48:11;102693.53;;;8.62;90.17
72110;BME280;59983;52.010;5.420;2023-05-19T03:50:38;102689.41;;;8.70;89.93
72110;BME280;59983;52.010;5.420;2023-05-19T03:53:05;102691.84;;;8.71;90.12
72110;BME280;59983;52.010;5.420;2023-05-19T03:55:32;102690.03;;;8.62;89.89
72110;BME280;59983;52.010;5.420;2023-05-19T03:57:59;102686.81;;;8.60;90.30
72110;BME280;59983;52.010;5.420;2023-05-19T04:00:25;102693.31;;;8.59;90.74
72110;BME280;59983;52.010;5.420;2023-05-19T04:02:52;102692.78;;;8.57;91.24
72110;BME280;59983;52.010;5.420;2023-05-19T04:05:18;102695.50;;;8.57;91.40
72110;BME280;59983;52.010;5.420;2023-05-19T04:07:45;102691.31;;;8.69;91.47
72110;BME280;59983;52.010;5.420;2023-05-19T04:10:12;102689.94;;;8.72;91.01
72110;BME280;59983;52.010;5.420;2023-05-19T04:12:38;102689.63;;;8.73;90.73
72110;BME280;59983;52.010;5.420;2023-05-19T04:15:05;102699.38;;;8.74;90.92
72110;BME280;59983;52.010;5.420;2023-05-19T04:17:32;102696.63;;;8.79;90.84
72110;BME280;59983;52.010;5.420;2023-05-19T04:19:59;102696.91;;;8.78;90.84
72110;BME280;59983;52.010;5.420;2023-05-19T04:22:26;102694.97;;;8.84;90.81
72110;BME280;59983;52.010;5.420;2023-05-19T04:24:53;102703.25;;;8.92;91.02
72110;BME280;59983;52.010;5.420;2023-05-19T04:27:20;102700.78;;;8.96;90.78
72110;BME280;59983;52.010;5.420;2023-05-19T04:29:47;102702.72;;;8.90;90.62
72110;BME280;59983;52.010;5.420;2023-05-19T04:32:14;102702.44;;;8.92;91.16
72110;BME280;59983;52.010;5.420;2023-05-19T04:34:43;102701.78;;;9.00;91.09
72110;BME280;59983;52.010;5.420;2023-05-19T04:37:13;102702.03;;;9.03;90.72
72110;BME280;59983;52.010;5.420;2023-05-19T04:39:42;102704.16;;;9.06;91.07
72110;BME280;59983;52.010;5.420;2023-05-19T04:42:10;102707.13;;;9.10;90.89
72110;BME280;59983;52.010;5.420;2023-05-19T04:44:37;102700.59;;;9.11;90.62
72110;BME280;59983;52.010;5.420;2023-05-19T04:47:08;102700.06;;;9.09;90.69
72110;BME280;59983;52.010;5.420;2023-05-19T04:49:35;102703.66;;;9.04;91.13
72110;BME280;59983;52.010;5.420;2023-05-19T04:52:06;102701.97;;;9.08;91.33
72110;BME280;59983;52.010;5.420;2023-05-19T04:54:36;102707.84;;;9.16;91.00
72110;BME280;59983;52.010;5.420;2023-05-19T04:57:04;102710.72;;;9.24;91.01
72110;BME280;59983;52.010;5.420;2023-05-19T04:59:31;102711.22;;;9.26;91.27
72110;BME280;59983;52.010;5.420;2023-05-19T05:01:57;102713.59;;;9.33;90.83
72110;BME280;59983;52.010;5.420;2023-05-19T05:04:24;102708.13;;;9.38;90.86
72110;BME280;59983;52.010;5.420;2023-05-19T05:06:51;102709.72;;;9.39;90.77
72110;BME280;59983;52.010;5.420;2023-05-19T05:09:17;102711.84;;;9.42;90.59
72110;BME280;59983;52.010;5.420;2023-05-19T05:11:45;102711.84;;;9.42;90.92
72110;BME280;59983;52.010;5.420;2023-05-19T05:14:12;102712.50;;;9.53;90.96
72110;BME280;59983;52.010;5.420;2023-05-19T05:16:39;102708.44;;;9.55;90.85
72110;BME280;59983;52.010;5.420;2023-05-19T05:19:06;102717.38;;;9.56;90.41
72110;BME280;59983;52.010;5.420;2023-05-19T05:21:33;102712.91;;;9.46;90.63
72110;BME280;59983;52.010;5.420;2023-05-19T05:24:00;102721.81;;;9.47;91.32
72110;BME280;59983;52.010;5.420;2023-05-19T05:26:29;102722.25;;;9.54;91.13
72110;BME280;59983;52.010;5.420;2023-05-19T05:28:58;102719.50;;;9.59;91.41
72110;BME280;59983;52.010;5.420;2023-05-19T05:31:25;102717.72;;;9.68;90.94
72110;BME280;59983;52.010;5.420;2023-05-19T05:33:51;102713.88;;;9.74;91.08
72110;BME280;59983;52.010;5.420;2023-05-19T05:36:18;102722.19;;;9.78;91.04
72110;BME280;59983;52.010;5.420;2023-05-19T05:38:45;102713.50;;;9.81;91.07
72110;BME280;59983;52.010;5.420;2023-05-19T05:41:11;102715.16;;;9.96;90.72
72110;BME280;59983;52.010;5.420;2023-05-19T05:43:38;102715.09;;;10.01;90.50
72110;BME280;59983;52.010;5.420;2023-05-19T05:46:04;102710.69;;;10.05;90.60
72110;BME280;59983;52.010;5.420;2023-05-19T05:48:31;102717.78;;;10.19;90.33
72110;BME280;59983;52.010;5.420;2023-05-19T05:50:58;102718.25;;;10.27;89.49
72110;BME280;59983;52.010;5.420;2023-05-19T05:53:29;102716.97;;;10.19;89.65
72110;BME280;59983;52.010;5.420;2023-05-19T05:55:56;102716.63;;;10.26;89.63
72110;BME280;59983;52.010;5.420;2023-05-19T05:58:23;102719.88;;;10.41;89.28
72110;BME280;59983;52.010;5.420;2023-05-19T06:00:50;102723.44;;;10.56;88.39
72110;BME280;59983;52.010;5.420;2023-05-19T06:03:18;102717.81;;;10.66;88.12
72110;BME280;59983;52.010;5.420;2023-05-19T06:05:49;102717.44;;;10.72;87.89
72110;BME280;59983;52.010;5.420;2023-05-19T06:08:16;102711.91;;;10.64;87.03
72110;BME280;59983;52.010;5.420;2023-05-19T06:10:43;102721.84;;;10.55;87.84
72110;BME280;59983;52.010;5.420;2023-05-19T06:13:12;102719.13;;;10.68;86.89
72110;BME280;59983;52.010;5.420;2023-05-19T06:15:39;102713.13;;;10.85;87.16
72110;BME280;59983;52.010;5.420;2023-05-19T06:18:06;102712.84;;;11.00;86.73
72110;BME280;59983;52.010;5.420;2023-05-19T06:20:33;102714.75;;;11.14;86.67
72110;BME280;59983;52.010;5.420;2023-05-19T06:23:00;102711.31;;;11.22;85.64
72110;BME280;59983;52.010;5.420;2023-05-19T06:25:26;102709.91;;;11.24;85.75
72110;BME280;59983;52.010;5.420;2023-05-19T06:27:53;102705.47;;;11.42;85.36
72110;BME280;59983;52.010;5.420;2023-05-19T06:30:20;102701.50;;;11.62;84.97
72110;BME280;59983;52.010;5.420;2023-05-19T06:32:47;102700.47;;;11.72;83.68
72110;BME280;59983;52.010;5.420;2023-05-19T06:35:14;102711.13;;;11.82;83.18
72110;BME280;59983;52.010;5.420;2023-05-19T06:37:40;102704.16;;;11.89;83.13
72110;BME280;59983;52.010;5.420;2023-05-19T06:40:07;102699.72;;;11.94;83.07
72110;BME280;59983;52.010;5.420;2023-05-19T06:42:34;102693.25;;;12.03;82.51
72110;BME280;59983;52.010;5.420;2023-05-19T06:45:01;102704.97;;;12.12;82.06
72110;BME280;59983;52.010;5.420;2023-05-19T06:47:27;102700.88;;;12.24;81.93
72110;BME280;59983;52.010;5.420;2023-05-19T06:49:54;102702.81;;;12.23;81.18
72110;BME280;59983;52.010;5.420;2023-05-19T06:52:21;102705.31;;;12.42;80.31
72110;BME280;59983;52.010;5.420;2023-05-19T06:54:48;102710.34;;;12.48;79.59
72110;BME280;59983;52.010;5.420;2023-05-19T06:57:15;102706.06;;;12.56;79.20
72110;BME280;59983;52.010;5.420;2023-05-19T06:59:42;102706.59;;;12.67;79.09
72110;BME280;59983;52.010;5.420;2023-05-19T07:02:08;102704.41;;;12.86;78.52
72110;BME280;59983;52.010;5.420;2023-05-19T07:04:35;102717.13;;;12.99;77.76
72110;BME280;59983;52.010;5.420;2023-05-19T07:07:02;102707.22;;;13.03;77.60
72110;BME280;59983;52.010;5.420;2023-05-19T07:09:28;102713.16;;;13.14;77.00
72110;BME280;59983;52.010;5.420;2023-05-19T07:11:55;102715.00;;;13.27;75.98
72110;BME280;59983;52.010;5.420;2023-05-19T07:14:22;102707.00;;;13.40;75.58
72110;BME280;59983;52.010;5.420;2023-05-19T07:16:48;102710.75;;;13.61;75.11
72110;BME280;59983;52.010;5.420;2023-05-19T07:19:15;102711.22;;;13.63;74.26
72110;BME280;59983;52.010;5.420;2023-05-19T07:21:42;102708.50;;;13.63;74.49
72110;BME280;59983;52.010;5.420;2023-05-19T07:24:08;102704.31;;;13.66;73.52
72110;BME280;59983;52.010;5.420;2023-05-19T07:26:35;102704.16;;;13.79;74.01
72110;BME280;59983;52.010;5.420;2023-05-19T07:29:01;102713.31;;;13.83;73.96
72110;BME280;59983;52.010;5.420;2023-05-19T07:31:28;102704.66;;;13.81;73.01
72110;BME280;59983;52.010;5.420;2023-05-19T07:33:55;102698.38;;;13.98;73.78
72110;BME280;59983;52.010;5.420;2023-05-19T07:36:22;102710.41;;;14.23;73.29
72110;BME280;59983;52.010;5.420;2023-05-19T07:38:49;102706.69;;;14.28;71.57
72110;BME280;59983;52.010;5.420;2023-05-19T07:41:15;102714.84;;;14.36;71.85
72110;BME280;59983;52.010;5.420;2023-05-19T07:43:42;102701.84;;;14.51;70.78
72110;BME280;59983;52.010;5.420;2023-05-19T07:46:09;102695.69;;;14.62;68.42
72110;BME280;59983;52.010;5.420;2023-05-19T07:48:35;102705.66;;;14.67;70.33
72110;BME280;59983;52.010;5.420;2023-05-19T07:51:02;102700.66;;;14.69;69.16
72110;BME280;59983;52.010;5.420;2023-05-19T07:53:29;102700.47;;;14.74;70.24
72110;BME280;59983;52.010;5.420;2023-05-19T07:55:55;102707.50;;;14.84;68.43
72110;BME280;59983;52.010;5.420;2023-05-19T07:58:24;102690.25;;;14.92;69.19
72110;BME280;59983;52.010;5.420;2023-05-19T08:00:50;102697.34;;;15.22;67.54
72110;BME280;59983;52.010;5.420;2023-05-19T08:03:18;102699.75;;;15.45;67.39
72110;BME280;59983;52.010;5.420;2023-05-19T08:05:46;102698.88;;;15.62;65.27
72110;BME280;59983;52.010;5.420;2023-05-19T08:08:12;102695.53;;;15.56;64.18
72110;BME280;59983;52.010;5.420;2023-05-19T08:10:42;102683.91;;;15.59;65.13
72110;BME280;59983;52.010;5.420;2023-05-19T08:13:08;102681.59;;;15.70;65.05
72110;BME280;59983;52.010;5.420;2023-05-19T08:15:35;102679.91;;;15.77;62.43
72110;BME280;59983;52.010;5.420;2023-05-19T08:18:02;102682.91;;;15.84;63.41
72110;BME280;59983;52.010;5.420;2023-05-19T08:20:30;102687.50;;;15.93;63.21
72110;BME280;59983;52.010;5.420;2023-05-19T08:22:58;102685.03;;;16.00;61.34
72110;BME280;59983;52.010;5.420;2023-05-19T08:25:25;102678.09;;;16.02;62.07
72110;BME280;59983;52.010;5.420;2023-05-19T08:27:51;102677.53;;;16.09;60.12
72110;BME280;59983;52.010;5.420;2023-05-19T08:30:18;102681.34;;;16.29;61.10
72110;BME280;59983;52.010;5.420;2023-05-19T08:32:44;102667.03;;;16.56;60.60
72110;BME280;59983;52.010;5.420;2023-05-19T08:35:11;102671.50;;;16.61;60.19
72110;BME280;59983;52.010;5.420;2023-05-19T08:37:38;102671.00;;;16.59;58.80
72110;BME280;59983;52.010;5.420;2023-05-19T08:40:05;102669.31;;;16.54;59.69
72110;BME280;59983;52.010;5.420;2023-05-19T08:42:32;102664.06;;;16.61;59.64
72110;BME280;59983;52.010;5.420;2023-05-19T08:45:00;102659.69;;;16.60;57.00
72110;BME280;59983;52.010;5.420;2023-05-19T08:47:27;102661.19;;;16.58;57.55
72110;BME280;59983;52.010;5.420;2023-05-19T08:50:02;102654.94;;;16.69;57.91
72110;BME280;59983;52.010;5.420;2023-05-19T08:52:39;102653.66;;;16.67;57.88
72110;BME280;59983;52.010;5.420;2023-05-19T08:57:47;102642.25;;;16.65;55.83
72110;BME280;59983;52.010;5.420;2023-05-19T09:00:15;102646.28;;;16.92;57.17
72110;BME280;59983;52.010;5.420;2023-05-19T09:02:42;102639.03;;;17.12;52.75
72110;BME280;59983;52.010;5.420;2023-05-19T09:05:26;102630.00;;;17.23;54.16
72110;BME280;59983;52.010;5.420;2023-05-19T09:07:53;102622.09;;;17.34;54.08
72110;BME280;59983;52.010;5.420;2023-05-19T09:10:20;102634.25;;;17.49;52.89
72110;BME280;59983;52.010;5.420;2023-05-19T09:12:47;102620.53;;;17.49;50.77
72110;BME280;59983;52.010;5.420;2023-05-19T09:15:16;102622.63;;;17.40;53.66
72110;BME280;59983;52.010;5.420;2023-05-19T09:17:45;102615.72;;;17.58;53.17
72110;BME280;59983;52.010;5.420;2023-05-19T09:20:13;102620.16;;;17.63;51.87
72110;BME280;59983;52.010;5.420;2023-05-19T09:22:43;102615.09;;;17.77;52.83
72110;BME280;59983;52.010;5.420;2023-05-19T09:25:21;102626.84;;;18.05;52.55
72110;BME280;59983;52.010;5.420;2023-05-19T09:27:48;102626.44;;;17.91;50.46
72110;BME280;59983;52.010;5.420;2023-05-19T09:30:16;102616.69;;;17.78;50.51
72110;BME280;59983;52.010;5.420;2023-05-19T09:32:43;102617.72;;;17.45;49.55
72110;BME280;59983;52.010;5.420;2023-05-19T09:35:12;102616.50;;;17.31;48.85
72110;BME280;59983;52.010;5.420;2023-05-19T09:37:42;102611.06;;;17.46;48.78
72110;BME280;59983;52.010;5.420;2023-05-19T09:40:09;102620.06;;;17.59;49.28
72110;BME280;59983;52.010;5.420;2023-05-19T09:42:39;102611.94;;;17.63;47.74
72110;BME280;59983;52.010;5.420;2023-05-19T09:45:06;102616.38;;;17.67;46.50
72110;BME280;59983;52.010;5.420;2023-05-19T09:47:35;102625.00;;;17.81;48.87
72110;BME280;59983;52.010;5.420;2023-05-19T09:50:07;102614.78;;;17.94;47.08
72110;BME280;59983;52.010;5.420;2023-05-19T09:52:35;102615.34;;;18.16;48.19
72110;BME280;59983;52.010;5.420;2023-05-19T09:55:03;102617.47;;;18.22;47.59
72110;BME280;59983;52.010;5.420;2023-05-19T09:57:33;102612.50;;;18.12;45.00
72110;BME280;59983;52.010;5.420;2023-05-19T10:02:45;102608.78;;;18.20;48.13
72110;BME280;59983;52.010;5.420;2023-05-19T10:05:13;102608.09;;;18.39;46.48
72110;BME280;59983;52.010;5.420;2023-05-19T10:07:43;102608.88;;;18.55;46.53
72110;BME280;59983;52.010;5.420;2023-05-19T10:10:11;102616.66;;;18.53;44.47
72110;BME280;59983;52.010;5.420;2023-05-19T10:12:39;102609.22;;;18.54;43.83
72110;BME280;59983;52.010;5.420;2023-05-19T10:15:11;102603.53;;;18.78;45.61
72110;BME280;59983;52.010;5.420;2023-05-19T10:17:38;102600.97;;;19.05;44.02
72110;BME280;59983;52.010;5.420;2023-05-19T10:20:15;102595.63;;;18.92;43.82
72110;BME280;59983;52.010;5.420;2023-05-19T10:22:44;102594.22;;;18.83;42.39
72110;BME280;59983;52.010;5.420;2023-05-19T10:25:12;102594.53;;;18.97;43.40
72110;BME280;59983;52.010;5.420;2023-05-19T10:27:50;102596.22;;;19.02;41.76
72110;BME280;59983;52.010;5.420;2023-05-19T10:30:28;102602.88;;;19.01;41.99
72110;BME280;59983;52.010;5.420;2023-05-19T10:32:55;102594.16;;;18.99;42.25
72110;BME280;59983;52.010;5.420;2023-05-19T10:38:37;102583.47;;;19.13;40.92
72110;BME280;59983;52.010;5.420;2023-05-19T10:41:29;102582.34;;;18.98;42.24
72110;BME280;59983;52.010;5.420;2023-05-19T10:44:08;102581.09;;;19.31;41.74
72110;BME280;59983;52.010;5.420;2023-05-19T10:46:35;102583.19;;;19.37;40.73
72110;BME280;59983;52.010;5.420;2023-05-19T10:49:01;102575.66;;;19.53;41.84
72110;BME280;59983;52.010;5.420;2023-05-19T10:51:32;102580.66;;;19.29;39.94
72110;BME280;59983;52.010;5.420;2023-05-19T10:54:07;102587.53;;;19.19;41.05
72110;BME280;59983;52.010;5.420;2023-05-19T10:56:38;102587.81;;;19.14;42.40
72110;BME280;59983;52.010;5.420;2023-05-19T10:59:31;102584.94;;;19.26;42.30
72110;BME280;59983;52.010;5.420;2023-05-19T11:02:03;102585.22;;;19.21;41.16
72110;BME280;59983;52.010;5.420;2023-05-19T11:07:17;102577.16;;;18.93;39.96
72110;BME280;59983;52.010;5.420;2023-05-19T11:09:49;102576.66;;;18.72;40.05
72110;BME280;59983;52.010;5.420;2023-05-19T11:12:20;102566.00;;;18.86;41.28
72110;BME280;59983;52.010;5.420;2023-05-19T11:14:53;102567.69;;;19.10;39.04
72110;BME280;59983;52.010;5.420;2023-05-19T11:17:20;102556.69;;;19.10;42.01
72110;BME280;59983;52.010;5.420;2023-05-19T11:19:54;102558.44;;;19.37;40.84
72110;BME280;59983;52.010;5.420;2023-05-19T11:22:27;102559.94;;;19.54;39.72
72110;BME280;59983;52.010;5.420;2023-05-19T11:24:54;102558.25;;;19.49;37.42
72110;BME280;59983;52.010;5.420;2023-05-19T11:27:33;102561.38;;;19.48;37.21
72110;BME280;59983;52.010;5.420;2023-05-19T11:30:08;102560.81;;;19.58;38.54
72110;BME280;59983;52.010;5.420;2023-05-19T11:32:40;102554.06;;;19.75;42.07
72110;BME280;59983;52.010;5.420;2023-05-19T11:35:09;102544.88;;;19.90;40.34
72110;BME280;59983;52.010;5.420;2023-05-19T11:37:36;102554.31;;;19.89;36.37
72110;BME280;59983;52.010;5.420;2023-05-19T11:40:04;102554.56;;;19.80;38.04
72110;BME280;59983;52.010;5.420;2023-05-19T11:42:35;102548.84;;;19.93;38.31
72110;BME280;59983;52.010;5.420;2023-05-19T11:45:05;102549.78;;;20.00;36.78
72110;BME280;59983;52.010;5.420;2023-05-19T11:47:32;102545.72;;;19.94;36.31
72110;BME280;59983;52.010;5.420;2023-05-19T11:50:12;102533.00;;;19.86;35.89
72110;BME280;59983;52.010;5.420;2023-05-19T11:52:43;102549.16;;;20.11;35.23
72110;BME280;59983;52.010;5.420;2023-05-19T11:55:17;102536.09;;;20.57;37.50
72110;BME280;59983;52.010;5.420;2023-05-19T11:58:01;102529.75;;;20.79;36.95
72110;BME280;59983;52.010;5.420;2023-05-19T12:00:34;102541.88;;;21.05;34.93
72110;BME280;59983;52.010;5.420;2023-05-19T12:03:05;102530.00;;;20.71;37.03
72110;BME280;59983;52.010;5.420;2023-05-19T12:05:32;102539.50;;;21.03;35.55
72110;BME280;59983;52.010;5.420;2023-05-19T12:08:07;102528.00;;;20.98;36.98
72110;BME280;59983;52.010;5.420;2023-05-19T12:10:34;102542.50;;;20.91;36.26
72110;BME280;59983;52.010;5.420;2023-05-19T12:13:02;102543.88;;;21.08;36.27
72110;BME280;59983;52.010;5.420;2023-05-19T12:15:30;102538.38;;;21.08;37.24
72110;BME280;59983;52.010;5.420;2023-05-19T12:17:59;102533.63;;;21.05;36.89
72110;BME280;59983;52.010;5.420;2023-05-19T12:20:27;102527.97;;;21.28;37.81
72110;BME280;59983;52.010;5.420;2023-05-19T12:22:54;102523.09;;;21.47;35.35
72110;BME280;59983;52.010;5.420;2023-05-19T12:25:22;102537.28;;;21.90;37.11
72110;BME280;59983;52.010;5.420;2023-05-19T12:27:49;102537.66;;;21.89;34.32
72110;BME280;59983;52.010;5.420;2023-05-19T12:30:24;102530.88;;;21.79;35.87
72110;BME280;59983;52.010;5.420;2023-05-19T12:32:52;102527.53;;;22.03;35.75
72110;BME280;59983;52.010;5.420;2023-05-19T12:35:19;102516.47;;;22.00;34.75
72110;BME280;59983;52.010;5.420;2023-05-19T12:37:45;102516.56;;;22.11;36.47
72110;BME280;59983;52.010;5.420;2023-05-19T12:40:15;102517.75;;;22.10;33.74
72110;BME280;59983;52.010;5.420;2023-05-19T12:42:45;102520.44;;;22.02;34.21
72110;BME280;59983;52.010;5.420;2023-05-19T12:45:13;102514.84;;;21.99;33.41
72110;BME280;59983;52.010;5.420;2023-05-19T12:47:40;102518.41;;;22.47;36.17
72110;BME280;59983;52.010;5.420;2023-05-19T12:50:08;102508.94;;;22.52;34.69
72110;BME280;59983;52.010;5.420;2023-05-19T12:53:01;102504.53;;;22.40;33.25
72110;BME280;59983;52.010;5.420;2023-05-19T12:55:28;102495.44;;;22.40;34.07
72110;BME280;59983;52.010;5.420;2023-05-19T12:57:56;102495.03;;;22.38;31.70
72110;BME280;59983;52.010;5.420;2023-05-19T13:00:24;102504.72;;;22.10;34.33
72110;BME280;59983;52.010;5.420;2023-05-19T13:03:06;102489.63;;;22.04;34.13
72110;BME280;59983;52.010;5.420;2023-05-19T13:05:38;102487.44;;;21.76;35.27
72110;BME280;59983;52.010;5.420;2023-05-19T13:08:07;102478.59;;;21.56;33.54
72110;BME280;59983;52.010;5.420;2023-05-19T13:10:36;102478.06;;;21.43;35.93
72110;BME280;59983;52.010;5.420;2023-05-19T13:13:04;102485.78;;;21.68;35.09
72110;BME280;59983;52.010;5.420;2023-05-19T13:15:32;102490.28;;;21.83;36.78
72110;BME280;59983;52.010;5.420;2023-05-19T13:18:05;102487.44;;;21.76;34.66
72110;BME280;59983;52.010;5.420;2023-05-19T13:20:32;102480.34;;;21.78;34.27
72110;BME280;59983;52.010;5.420;2023-05-19T13:23:00;102484.53;;;21.62;33.74
72110;BME280;59983;52.010;5.420;2023-05-19T13:25:27;102480.19;;;21.57;35.55
72110;BME280;59983;52.010;5.420;2023-05-19T13:27:54;102480.03;;;21.87;34.92
72110;BME280;59983;52.010;5.420;2023-05-19T13:30:21;102473.53;;;22.10;35.93
72110;BME280;59983;52.010;5.420;2023-05-19T13:32:49;102473.88;;;22.08;36.04
72110;BME280;59983;52.010;5.420;2023-05-19T13:35:18;102475.91;;;22.11;36.01